createdAt,value
2022-09-24T00:03:14.633Z,8.89
2022-09-24T00:08:17.029Z,8.90
2022-09-24T00:13:19.383Z,8.82
2022-09-24T00:18:21.906Z,8.83
2022-09-24T00:23:22.683Z,8.75
2022-09-24T00:28:24.641Z,8.72
2022-09-24T00:33:26.143Z,8.71
2022-09-24T00:38:26.761Z,8.77
2022-09-24T00:43:30.936Z,8.81
2022-09-24T00:48:34.276Z,8.69
2022-09-24T00:53:35.780Z,8.75
2022-09-24T00:58:38.113Z,8.70
2022-09-24T01:03:42.385Z,8.65
2022-09-24T01:08:43.475Z,8.54
2022-09-24T01:13:56.345Z,8.45
2022-09-24T01:19:05.750Z,8.38
2022-09-24T01:24:41.117Z,8.30
2022-09-24T01:29:53.284Z,8.28
2022-09-24T01:34:58.808Z,8.24
2022-09-24T01:40:00.747Z,8.26
2022-09-24T01:45:03.748Z,8.23
2022-09-24T01:50:05.884Z,8.23
2022-09-24T01:55:08.965Z,8.25
2022-09-24T02:00:13.078Z,8.21
2022-09-24T02:05:19.742Z,8.22
2022-09-24T02:10:21.631Z,8.21
2022-09-24T02:15:32.215Z,8.20
2022-09-24T02:20:36.269Z,8.18
2022-09-24T02:25:42.823Z,8.14
2022-09-24T02:30:50.819Z,8.10
2022-09-24T02:35:53.378Z,7.89
2022-09-24T02:40:55.256Z,7.89
2022-09-24T02:45:57.377Z,7.90
2022-09-24T02:50:57.989Z,7.86
2022-09-24T02:56:00.262Z,7.81
2022-09-24T03:01:02.304Z,7.82
2022-09-24T03:06:02.910Z,7.75
2022-09-24T03:11:04.175Z,7.84
2022-09-24T03:16:07.578Z,7.81
2022-09-24T03:21:12.111Z,7.82
2022-09-24T03:26:13.116Z,7.88
2022-09-24T03:31:15.133Z,7.87
2022-09-24T03:36:18.039Z,7.79
2022-09-24T03:41:18.963Z,7.81
2022-09-24T03:46:21.034Z,7.74
2022-09-24T03:51:22.800Z,7.69
2022-09-24T03:56:23.445Z,7.62
2022-09-24T04:01:25.463Z,7.60
2022-09-24T04:06:27.088Z,7.54
2022-09-24T04:11:27.831Z,7.46
2022-09-24T04:16:29.847Z,7.35
2022-09-24T04:21:30.947Z,7.40
2022-09-24T04:26:32.007Z,7.26
2022-09-24T04:31:34.326Z,7.18
2022-09-24T04:36:35.004Z,7.27
2022-09-24T04:41:36.055Z,7.16
2022-09-24T04:46:38.209Z,7.24
2022-09-24T04:51:39.137Z,7.23
2022-09-24T04:56:39.736Z,7.20
2022-09-24T05:01:41.780Z,7.15
2022-09-24T05:06:42.477Z,7.20
2022-09-24T05:11:43.082Z,7.30
2022-09-24T05:16:45.053Z,7.28
2022-09-24T05:21:46.318Z,7.47
2022-09-24T05:27:04.642Z,7.56
2022-09-24T05:32:13.042Z,7.69
2022-09-24T05:37:15.524Z,7.80
2022-09-24T05:42:16.233Z,8.01
2022-09-24T05:47:18.284Z,8.12
2022-09-24T05:52:18.927Z,8.39
2022-09-24T05:57:19.694Z,8.42
2022-09-24T06:02:21.688Z,8.44
2022-09-24T06:07:22.453Z,8.55
2022-09-24T06:12:23.580Z,8.77
2022-09-24T06:17:27.217Z,8.70
2022-09-24T06:22:29.221Z,8.93
2022-09-24T06:27:29.828Z,9.14
2022-09-24T06:32:32.064Z,9.34
2022-09-24T06:37:34.044Z,9.59
2022-09-24T06:42:34.717Z,9.82
2022-09-24T06:47:36.697Z,9.76
2022-09-24T06:52:37.446Z,9.86
2022-09-24T06:57:38.125Z,10.19
2022-09-24T07:02:40.185Z,10.15
2022-09-24T07:07:41.421Z,10.45
2022-09-24T07:12:42.814Z,10.60
2022-09-24T07:17:44.762Z,10.93
2022-09-24T07:22:45.433Z,11.42
2022-09-24T07:27:46.063Z,11.76
2022-09-24T07:32:48.342Z,11.89
2022-09-24T07:37:48.996Z,11.69
2022-09-24T07:42:49.758Z,11.71
2022-09-24T07:47:59.842Z,11.64
2022-09-24T07:53:01.395Z,11.96
2022-09-24T07:58:02.161Z,12.04
2022-09-24T08:03:05.631Z,11.99
2022-09-24T08:08:06.457Z,12.39
2022-09-24T08:13:07.086Z,12.62
2022-09-24T08:18:09.281Z,12.75
2022-09-24T08:23:11.055Z,13.28
2022-09-24T08:28:12.152Z,13.72
2022-09-24T08:33:15.390Z,13.61
2022-09-24T08:38:15.996Z,13.66
2022-09-24T08:43:30.965Z,13.78
2022-09-24T08:48:37.222Z,13.68
2022-09-24T08:53:48.633Z,13.87
2022-09-24T08:58:53.881Z,14.08
2022-09-24T09:04:05.012Z,14.38
2022-09-24T09:09:12.840Z,14.73
2022-09-24T09:14:18.712Z,14.99
2022-09-24T09:19:27.525Z,15.47
2022-09-24T09:24:36.157Z,16.04
2022-09-24T09:29:37.521Z,16.24
2022-09-24T09:34:52.527Z,16.60
2022-09-24T09:40:00.498Z,16.63
2022-09-24T09:45:02.813Z,17.38
2022-09-24T09:50:12.339Z,17.77
2022-09-24T09:55:23.045Z,17.93
2022-09-24T10:00:33.545Z,18.40
2022-09-24T10:05:35.832Z,18.36
2022-09-24T10:10:36.465Z,18.60
2022-09-24T10:15:50.078Z,18.47
2022-09-24T10:20:52.519Z,18.80
2022-09-24T10:25:59.928Z,18.53
2022-09-24T10:31:04.738Z,18.29
2022-09-24T10:36:09.609Z,17.67
2022-09-24T10:41:27.829Z,17.22
2022-09-24T10:46:44.134Z,17.23
2022-09-24T10:51:53.250Z,17.49
2022-09-24T10:56:57.761Z,17.55
2022-09-24T11:02:18.105Z,17.88
2022-09-24T11:07:50.249Z,17.79
2022-09-24T11:13:03.652Z,17.77
2022-09-24T11:18:19.785Z,17.58
2022-09-24T11:23:43.651Z,17.53
2022-09-24T11:29:05.366Z,17.29
2022-09-24T11:34:22.694Z,17.27
2022-09-24T11:39:38.938Z,17.35
2022-09-24T11:45:02.905Z,17.57
2022-09-24T11:50:27.256Z,17.71
2022-09-24T11:55:35.803Z,17.81
2022-09-24T12:00:41.576Z,17.63
2022-09-24T12:05:49.377Z,17.69
2022-09-24T12:10:57.930Z,17.97
2022-09-24T12:16:04.202Z,18.02
2022-09-24T12:21:10.761Z,18.14
2022-09-24T12:26:16.935Z,18.21
2022-09-24T12:31:43.053Z,18.11
2022-09-24T12:36:57.559Z,18.06
2022-09-24T12:42:03.989Z,18.21
2022-09-24T12:47:07.233Z,18.46
2022-09-24T12:52:19.142Z,18.70
2022-09-24T12:57:26.143Z,18.62
2022-09-24T13:02:29.544Z,18.59
2022-09-24T13:07:32.335Z,18.68
2022-09-24T13:12:34.426Z,18.66
2022-09-24T13:17:38.258Z,18.84
2022-09-24T13:22:38.944Z,19.20
2022-09-24T13:27:43.329Z,19.60
2022-09-24T13:32:50.277Z,19.44
2022-09-24T13:37:57.148Z,19.24
2022-09-24T13:43:06.276Z,19.37
2022-09-24T13:48:19.547Z,19.42
2022-09-24T13:53:27.510Z,19.33
2022-09-24T13:58:31.261Z,19.22
2022-09-24T14:03:34.612Z,19.28
2022-09-24T14:08:36.089Z,19.22
2022-09-24T14:13:45.688Z,19.21
2022-09-24T14:18:47.074Z,19.18
2022-09-24T14:23:54.629Z,19.10
2022-09-24T14:28:59.038Z,18.98
2022-09-24T14:34:04.383Z,18.93
2022-09-24T14:39:06.787Z,18.91
2022-09-24T14:44:15.412Z,18.88
2022-09-24T14:49:20.439Z,18.96
2022-09-24T14:54:28.422Z,18.94
2022-09-24T14:59:32.244Z,18.86
2022-09-24T15:04:33.162Z,18.78
2022-09-24T15:09:33.964Z,18.72
2022-09-24T15:14:36.778Z,18.67
2022-09-24T15:19:40.887Z,18.56
2022-09-24T15:24:41.591Z,18.37
2022-09-24T15:29:43.565Z,18.21
2022-09-24T15:34:44.386Z,17.94
2022-09-24T15:39:49.163Z,17.59
2022-09-24T15:44:51.650Z,17.19
2022-09-24T15:49:52.451Z,16.88
2022-09-24T15:54:54.368Z,16.65
2022-09-24T15:59:56.501Z,16.54
2022-09-24T16:05:01.456Z,16.31
2022-09-24T16:10:05.245Z,16.17
2022-09-24T16:15:09.074Z,16.08
2022-09-24T16:20:10.670Z,15.89
2022-09-24T16:25:11.419Z,15.68
2022-09-24T16:30:13.626Z,15.58
2022-09-24T16:35:14.323Z,15.52
2022-09-24T16:40:15.442Z,15.52
2022-09-24T16:45:18.085Z,15.52
2022-09-24T16:50:20.169Z,15.51
2022-09-24T16:55:20.885Z,15.44
2022-09-24T17:00:22.894Z,15.41
2022-09-24T17:05:23.761Z,15.30
2022-09-24T17:10:24.438Z,14.98
2022-09-24T17:15:27.324Z,14.77
2022-09-24T17:20:27.978Z,14.60
2022-09-24T17:25:28.651Z,14.62
2022-09-24T17:30:30.734Z,14.37
2022-09-24T17:35:31.387Z,14.16
2022-09-24T17:40:32.075Z,13.98
2022-09-24T17:45:34.156Z,13.95
2022-09-24T17:50:34.839Z,13.76
2022-09-24T17:55:36.066Z,13.63
2022-09-24T18:00:39.280Z,13.51
2022-09-24T18:05:40.304Z,13.40
2022-09-24T18:10:41.077Z,13.30
2022-09-24T18:15:43.108Z,13.22
2022-09-24T18:20:43.896Z,13.10
2022-09-24T18:25:44.644Z,13.04
2022-09-24T18:30:46.681Z,12.95
2022-09-24T18:35:47.338Z,12.80
2022-09-24T18:40:49.348Z,12.81
2022-09-24T18:45:51.446Z,12.75
2022-09-24T18:50:52.139Z,12.68
2022-09-24T18:55:53.109Z,12.57
2022-09-24T19:00:59.800Z,12.50
2022-09-24T19:06:02.825Z,12.43
2022-09-24T19:11:09.271Z,12.39
2022-09-24T19:16:13.333Z,12.31
2022-09-24T19:21:15.657Z,12.18
2022-09-24T19:26:18.031Z,12.15
2022-09-24T19:31:22.202Z,12.10
2022-09-24T19:36:23.402Z,11.91
2022-09-24T19:41:26.995Z,11.93
2022-09-24T19:46:31.269Z,11.79
2022-09-24T19:51:34.187Z,11.66
2022-09-24T19:56:35.360Z,11.63
2022-09-24T20:01:37.684Z,11.56
2022-09-24T20:06:39.664Z,11.52
2022-09-24T20:11:40.581Z,11.41
2022-09-24T20:16:44.548Z,11.48
2022-09-24T20:21:45.218Z,11.46
2022-09-24T20:27:03.558Z,11.53
2022-09-24T20:32:05.759Z,11.50
2022-09-24T20:37:06.674Z,11.47
2022-09-24T20:42:07.318Z,11.50
2022-09-24T20:47:10.392Z,11.42
2022-09-24T20:52:11.040Z,11.35
2022-09-24T20:57:11.671Z,11.34
2022-09-24T21:02:13.701Z,11.26
2022-09-24T21:07:14.453Z,11.20
2022-09-24T21:12:15.066Z,11.04
2022-09-24T21:17:17.864Z,11.07
2022-09-24T21:22:18.547Z,11.07
2022-09-24T21:27:19.962Z,10.95
2022-09-24T21:32:22.086Z,10.97
2022-09-24T21:37:23.318Z,10.90
2022-09-24T21:42:25.406Z,10.83
2022-09-24T21:47:27.357Z,10.72
2022-09-24T21:52:31.318Z,10.69
2022-09-24T21:57:31.935Z,10.59
2022-09-24T22:02:33.941Z,10.44
2022-09-24T22:07:34.607Z,10.37
2022-09-24T22:12:35.459Z,10.31
2022-09-24T22:17:37.530Z,10.27
2022-09-24T22:22:38.145Z,10.18
2022-09-24T22:27:38.766Z,10.11
2022-09-24T22:32:40.750Z,10.04
2022-09-24T22:37:41.401Z,10.00
2022-09-24T22:42:42.002Z,9.90
2022-09-24T22:47:43.962Z,9.92
2022-09-24T22:52:44.589Z,9.90
2022-09-24T22:57:45.189Z,9.87
2022-09-24T23:02:47.336Z,9.81
2022-09-24T23:07:49.009Z,9.82
2022-09-24T23:12:50.075Z,9.75
2022-09-24T23:17:52.230Z,9.81
2022-09-24T23:22:52.892Z,9.76
2022-09-24T23:27:53.509Z,9.79
2022-09-24T23:32:55.455Z,9.74
2022-09-24T23:37:56.090Z,9.68
2022-09-24T23:42:56.770Z,9.71
2022-09-24T23:47:59.096Z,9.60
2022-09-24T23:52:59.748Z,9.58
2022-09-24T23:58:00.463Z,9.51
